Time;durP1;ratioP1;P1;durP2;ratioP2;P2;SDS_P1;SDS_P2;PMS_P1;PMS_P2;Temp;Humidity;BMP_temperature;BMP_pressure;BME280_temperature;BME280_humidity;BME280_pressure;Samples;Min_cycle;Max_cycle;Signal;HPM_P1;HPM_P2
2022/07/29 00:00:05;;;;;;;4.43;2.08;;;18.70;99.90;;;;;;5076364;28;20170;-64
2022/07/29 00:02:31;;;;;;;4.55;2.00;;;18.70;99.90;;;;;;5091728;28;20227;-64
2022/07/29 00:04:57;;;;;;;6.72;2.08;;;18.70;99.90;;;;;;5075768;28;20202;-64
2022/07/29 00:07:23;;;;;;;4.22;2.47;;;18.70;99.90;;;;;;5076652;28;20623;-64
2022/07/29 00:09:49;;;;;;;7.28;2.40;;;18.70;99.90;;;;;;5076335;28;20165;-64
2022/07/29 00:12:15;;;;;;;3.67;1.92;;;18.70;99.90;;;;;;5076005;28;20538;-64
2022/07/29 00:14:41;;;;;;;5.40;2.15;;;18.60;99.90;;;;;;5075750;28;20205;-64
2022/07/29 00:17:07;;;;;;;4.53;2.17;;;18.70;99.90;;;;;;5075902;28;20300;-64
2022/07/29 00:19:34;;;;;;;4.18;2.20;;;18.60;99.90;;;;;;5075396;28;20241;-64
2022/07/29 00:22:00;;;;;;;4.60;2.10;;;18.60;99.90;;;;;;5075398;28;20170;-64
2022/07/29 00:24:26;;;;;;;6.28;1.92;;;18.70;99.90;;;;;;5075369;28;20194;-64
2022/07/29 00:26:51;;;;;;;5.88;2.22;;;18.60;99.90;;;;;;5076238;28;20165;-64
2022/07/29 00:29:18;;;;;;;4.95;2.15;;;18.60;99.90;;;;;;5075734;28;20599;-64
2022/07/29 00:31:43;;;;;;;4.88;2.15;;;18.60;99.90;;;;;;5075699;28;20178;-64
2022/07/29 00:35:43;;;;;;;5.30;2.05;;;18.60;99.90;;;;;;5075415;28;20228;-64
2022/07/29 00:36:55;;;;;;;3.88;2.33;;;18.60;99.90;;;;;;5075345;28;20547;-64
2022/07/29 00:39:21;;;;;;;5.60;2.33;;;18.60;99.90;;;;;;5075765;28;20247;-63
2022/07/29 00:41:47;;;;;;;6.07;2.25;;;18.60;99.90;;;;;;5075740;28;20334;-64
2022/07/29 00:44:13;;;;;;;5.45;2.42;;;18.60;99.90;;;;;;5075444;28;20236;-64
2022/07/29 00:46:38;;;;;;;4.35;2.30;;;18.60;99.90;;;;;;5075284;28;20178;-64
2022/07/29 00:49:04;;;;;;;4.30;1.77;;;18.50;99.90;;;;;;5075189;28;20181;-64
2022/07/29 00:51:31;;;;;;;9.02;2.70;;;18.50;99.90;;;;;;5075175;28;20533;-67
2022/07/29 00:53:57;;;;;;;3.03;2.05;;;18.50;99.90;;;;;;5075059;28;20245;-64
2022/07/29 00:56:23;;;;;;;4.88;2.25;;;18.40;99.90;;;;;;5075150;28;20651;-64
2022/07/29 00:58:51;;;;;;;5.10;2.58;;;18.40;99.90;;;;;;5075216;28;20204;-65
2022/07/29 01:01:17;;;;;;;7.95;2.30;;;18.30;99.90;;;;;;5074898;28;20178;-64
2022/07/29 01:03:42;;;;;;;3.95;1.92;;;18.30;99.90;;;;;;5074493;28;20193;-64
2022/07/29 01:06:09;;;;;;;8.07;2.45;;;18.20;99.90;;;;;;5075366;28;20240;-64
2022/07/29 01:08:35;;;;;;;4.47;2.30;;;18.20;99.90;;;;;;5075274;28;20657;-64
2022/07/29 01:11:02;;;;;;;8.43;2.50;;;18.10;99.90;;;;;;5074863;28;20220;-63
2022/07/29 01:13:29;;;;;;;6.07;2.15;;;18.00;99.90;;;;;;5074613;28;20174;-63
2022/07/29 01:16:01;;;;;;;2.10;1.90;;;17.90;99.90;;;;;;5074474;28;20189;-64
2022/07/29 01:18:34;;;;;;;6.22;2.40;;;17.90;99.90;;;;;;5056387;28;20206;-64
2022/07/29 01:21:30;;;;;;;3.90;2.30;;;17.80;99.90;;;;;;5074456;28;20204;-64
2022/07/29 01:24:09;;;;;;;6.53;2.30;;;17.70;99.90;;;;;;5056602;28;20197;-64
2022/07/29 01:27:18;;;;;;;4.72;2.30;;;17.70;99.90;;;;;;5075017;28;20154;-65
2022/07/29 01:29:53;;;;;;;6.15;2.25;;;17.70;99.90;;;;;;5074168;28;20662;-64
2022/07/29 01:32:25;;;;;;;4.43;2.45;;;17.70;99.90;;;;;;5074550;28;20166;-65
2022/07/29 01:35:10;;;;;;;4.20;2.17;;;17.60;99.90;;;;;;5073064;28;20198;-64
2022/07/29 01:38:01;;;;;;;6.40;2.25;;;17.60;99.90;;;;;;5056371;28;20200;-64
2022/07/29 01:40:33;;;;;;;6.93;2.53;;;17.60;99.90;;;;;;5045812;28;20182;-64
2022/07/29 01:43:05;;;;;;;7.70;2.67;;;17.60;99.90;;;;;;5089844;28;20243;-64
2022/07/29 01:45:41;;;;;;;5.30;2.47;;;17.50;99.90;;;;;;5089852;28;20200;-64
2022/07/29 01:48:27;;;;;;;3.35;2.13;;;17.50;99.90;;;;;;5074081;28;20258;-64
2022/07/29 01:50:56;;;;;;;2.40;2.20;;;17.50;99.90;;;;;;5074146;28;20162;-64
2022/07/29 01:53:31;;;;;;;6.88;2.40;;;17.40;99.90;;;;;;5073910;28;20197;-64
2022/07/29 01:55:59;;;;;;;6.88;2.45;;;17.40;99.90;;;;;;5089912;28;20165;-64
2022/07/29 01:58:28;;;;;;;3.45;2.60;;;17.40;99.90;;;;;;5073879;28;20205;-64
2022/07/29 02:00:55;;;;;;;4.15;2.25;;;17.30;99.90;;;;;;5074146;28;20166;-64
2022/07/29 02:03:22;;;;;;;3.88;2.53;;;17.30;99.90;;;;;;5073679;28;20231;-64
2022/07/29 02:05:49;;;;;;;4.43;2.42;;;17.30;99.90;;;;;;5073856;28;20360;-64
2022/07/29 02:08:18;;;;;;;6.40;2.63;;;17.20;99.90;;;;;;5074203;28;20174;-64
2022/07/29 02:10:47;;;;;;;5.70;2.47;;;17.20;99.90;;;;;;5073911;28;20172;-64
2022/07/29 02:13:14;;;;;;;3.63;2.35;;;17.10;99.90;;;;;;5073800;28;20219;-64
2022/07/29 02:15:42;;;;;;;4.43;2.50;;;17.00;99.90;;;;;;5074209;28;20727;-65
2022/07/29 02:18:17;;;;;;;7.15;2.40;;;17.00;99.90;;;;;;5073969;28;20205;-64
2022/07/29 02:20:45;;;;;;;2.88;2.30;;;17.00;99.90;;;;;;5074515;28;20150;-63
2022/07/29 02:23:14;;;;;;;8.10;2.28;;;17.00;99.90;;;;;;5074276;28;20165;-64
2022/07/29 02:25:42;;;;;;;8.75;2.53;;;17.00;99.90;;;;;;5074292;28;20205;-64
2022/07/29 02:28:08;;;;;;;4.35;2.20;;;17.00;99.90;;;;;;5090819;28;20181;-65
2022/07/29 02:30:41;;;;;;;4.85;2.53;;;17.00;99.90;;;;;;5074744;28;20177;-64
2022/07/29 02:33:09;;;;;;;6.25;2.30;;;17.00;99.90;;;;;;5074092;28;20185;-64
2022/07/29 02:35:36;;;;;;;3.90;2.40;;;17.00;99.90;;;;;;5073455;28;20205;-64
2022/07/29 02:40:48;;;;;;;4.00;2.47;;;17.00;99.90;;;;;;5073864;28;20239;-64
2022/07/29 02:43:14;;;;;;;5.90;2.50;;;17.10;99.90;;;;;;5073495;28;20170;-64
2022/07/29 02:45:41;;;;;;;2.45;2.25;;;17.00;99.90;;;;;;5074338;28;20189;-64
2022/07/29 02:48:13;;;;;;;4.90;2.40;;;17.00;99.90;;;;;;5077939;28;20261;-64
2022/07/29 02:50:47;;;;;;;6.43;2.80;;;17.00;99.90;;;;;;5093274;28;20170;-64
2022/07/29 02:53:18;;;;;;;4.43;2.50;;;16.80;99.90;;;;;;5077667;28;20161;-64
2022/07/29 02:55:48;;;;;;;5.20;2.75;;;16.60;99.90;;;;;;5077516;28;20161;-64
2022/07/29 02:58:33;;;;;;;5.47;3.78;;;16.50;99.90;;;;;;5077839;28;20288;-64
2022/07/29 03:01:11;;;;;;;7.43;2.92;;;16.50;99.90;;;;;;5077446;28;20170;-63
2022/07/29 03:03:39;;;;;;;5.97;2.95;;;16.60;99.90;;;;;;5077394;28;20193;-63
2022/07/29 03:06:07;;;;;;;6.93;2.80;;;16.60;99.90;;;;;;5077611;28;20646;-64
2022/07/29 03:08:36;;;;;;;12.82;3.15;;;16.60;99.90;;;;;;5077750;28;20181;-64
2022/07/29 03:11:02;;;;;;;6.72;2.63;;;16.60;99.90;;;;;;5077619;28;20166;-64
2022/07/29 03:13:30;;;;;;;5.05;3.13;;;16.50;99.90;;;;;;5077121;28;20181;-65
2022/07/29 03:15:57;;;;;;;5.85;2.80;;;16.50;99.90;;;;;;5077238;28;20658;-64
2022/07/29 03:18:24;;;;;;;3.90;2.80;;;16.50;99.90;;;;;;5077190;28;20197;-64
2022/07/29 03:20:50;;;;;;;7.50;2.92;;;16.50;99.90;;;;;;5092750;28;20174;-65
2022/07/29 03:23:23;;;;;;;5.95;2.92;;;16.50;99.90;;;;;;5092597;28;20619;-66
2022/07/29 03:25:52;;;;;;;3.78;2.40;;;16.50;99.90;;;;;;5077127;28;20619;-66
2022/07/29 03:28:19;;;;;;;7.68;3.50;;;16.50;99.90;;;;;;5078184;28;20643;-66
2022/07/29 03:30:45;;;;;;;5.47;2.90;;;16.40;99.90;;;;;;5077474;28;20174;-63
2022/07/29 03:33:11;;;;;;;6.07;2.80;;;16.40;99.90;;;;;;5077016;28;20174;-64
2022/07/29 03:35:37;;;;;;;3.30;2.90;;;16.40;99.90;;;;;;5076521;28;20220;-63
2022/07/29 03:38:03;;;;;;;9.43;2.90;;;16.40;99.90;;;;;;5076797;28;20247;-64
2022/07/29 03:40:40;;;;;;;3.85;2.95;;;16.50;99.90;;;;;;5058694;28;20517;-64
2022/07/29 03:43:09;;;;;;;10.35;3.35;;;16.40;99.90;;;;;;5076694;28;20158;-63
2022/07/29 03:45:36;;;;;;;7.50;2.88;;;16.40;99.90;;;;;;5076389;28;20200;-63
2022/07/29 03:48:08;;;;;;;7.07;2.80;;;16.40;99.90;;;;;;5092068;28;20704;-63
2022/07/29 03:50:35;;;;;;;6.10;3.03;;;16.40;99.90;;;;;;5076380;28;20654;-63
2022/07/29 03:53:02;;;;;;;4.90;2.60;;;16.40;99.90;;;;;;5076444;28;20581;-63
2022/07/29 03:55:31;;;;;;;6.43;2.92;;;16.40;99.90;;;;;;5076402;28;20562;-64
2022/07/29 03:57:58;;;;;;;5.88;2.80;;;16.40;99.90;;;;;;5075339;28;20568;-63
2022/07/29 04:00:25;;;;;;;3.13;2.63;;;16.40;99.90;;;;;;5076348;28;20716;-63
2022/07/29 04:02:51;;;;;;;5.00;3.28;;;16.40;99.90;;;;;;5076237;28;20216;-64
2022/07/29 04:05:17;;;;;;;6.75;3.53;;;16.40;99.90;;;;;;5091427;28;20197;-64
2022/07/29 04:07:45;;;;;;;6.72;2.75;;;16.40;99.90;;;;;;5091776;28;20184;-63
2022/07/29 04:10:11;;;;;;;5.55;3.53;;;16.30;99.90;;;;;;5076383;28;20178;-63
2022/07/29 04:12:37;;;;;;;6.90;3.50;;;16.20;99.90;;;;;;5091608;28;20173;-63
2022/07/29 04:15:06;;;;;;;7.13;3.47;;;16.20;99.90;;;;;;5076115;28;20200;-64
2022/07/29 04:17:32;;;;;;;5.93;3.22;;;16.10;99.90;;;;;;5075757;28;20670;-64
2022/07/29 04:19:57;;;;;;;4.80;3.10;;;16.10;99.90;;;;;;5076047;28;20206;-63
2022/07/29 04:22:23;;;;;;;7.05;3.22;;;16.10;99.90;;;;;;5075975;28;20543;-64
2022/07/29 04:24:49;;;;;;;8.05;3.58;;;16.20;99.90;;;;;;5057922;28;20558;-63
2022/07/29 04:27:14;;;;;;;4.70;3.28;;;16.10;99.90;;;;;;5076232;28;20172;-64
2022/07/29 04:29:40;;;;;;;9.57;3.03;;;16.20;99.90;;;;;;5075890;28;20184;-64
2022/07/29 04:32:06;;;;;;;6.90;3.08;;;16.20;99.90;;;;;;5076235;28;20154;-64
2022/07/29 04:34:32;;;;;;;4.40;3.20;;;16.20;99.90;;;;;;5075588;28;20244;-63
2022/07/29 04:36:57;;;;;;;6.60;3.22;;;16.20;99.90;;;;;;5091778;28;20228;-63
2022/07/29 04:39:24;;;;;;;5.35;3.20;;;16.20;99.90;;;;;;5076222;28;20658;-63
2022/07/29 04:41:50;;;;;;;5.10;3.03;;;16.20;99.90;;;;;;5075905;28;20176;-63
2022/07/29 04:44:16;;;;;;;5.50;3.00;;;16.20;99.90;;;;;;5091502;28;20654;-63
2022/07/29 04:46:41;;;;;;;8.98;3.67;;;16.20;99.90;;;;;;5075574;28;20195;-63
2022/07/29 04:49:07;;;;;;;7.22;3.50;;;16.00;99.90;;;;;;5075646;28;20189;-63
2022/07/29 04:51:33;;;;;;;7.38;3.30;;;15.90;99.90;;;;;;5075266;28;20539;-63
2022/07/29 04:53:59;;;;;;;6.82;3.10;;;15.80;99.90;;;;;;5075276;28;20201;-63
2022/07/29 04:56:25;;;;;;;10.50;4.47;;;15.80;99.90;;;;;;5075566;28;20170;-63
2022/07/29 04:58:51;;;;;;;4.72;3.00;;;15.90;99.90;;;;;;5075512;28;20198;-63
2022/07/29 05:01:17;;;;;;;6.65;3.13;;;15.90;99.90;;;;;;5075333;28;20248;-64
2022/07/29 05:03:43;;;;;;;6.07;3.13;;;15.90;99.90;;;;;;5075322;28;20202;-63
2022/07/29 05:06:09;;;;;;;9.27;3.55;;;16.00;99.90;;;;;;5074919;28;20710;-63
2022/07/29 05:08:35;;;;;;;9.35;3.40;;;16.00;99.90;;;;;;5074823;28;20265;-63
2022/07/29 05:11:01;;;;;;;7.68;3.00;;;16.10;99.90;;;;;;5074796;28;20185;-63
2022/07/29 05:13:26;;;;;;;9.57;4.65;;;16.20;99.90;;;;;;5075468;28;20202;-63
2022/07/29 05:15:52;;;;;;;7.82;3.28;;;16.30;99.90;;;;;;5075033;28;20189;-64
2022/07/29 05:18:18;;;;;;;5.45;2.90;;;16.40;99.90;;;;;;5090476;28;20612;-63
2022/07/29 05:20:43;;;;;;;5.40;2.90;;;16.40;99.90;;;;;;5074582;28;20184;-63
2022/07/29 05:23:12;;;;;;;10.65;2.85;;;16.50;99.90;;;;;;5074592;28;20170;-63
2022/07/29 05:25:38;;;;;;;7.82;3.10;;;16.60;99.90;;;;;;5074383;28;20190;-63
2022/07/29 05:28:04;;;;;;;10.82;3.22;;;16.70;99.90;;;;;;5074685;28;20708;-63
2022/07/29 05:30:30;;;;;;;7.50;3.17;;;16.80;99.90;;;;;;5074408;28;20182;-63
2022/07/29 05:32:55;;;;;;;5.35;2.70;;;16.80;99.90;;;;;;5074394;28;20227;-63
2022/07/29 05:35:21;;;;;;;7.95;2.67;;;16.90;99.90;;;;;;5074118;28;20283;-63
2022/07/29 05:37:47;;;;;;;8.10;3.10;;;16.90;99.90;;;;;;5089757;28;20571;-63
2022/07/29 05:40:13;;;;;;;6.03;2.70;;;16.90;99.90;;;;;;5056324;28;20227;-63
2022/07/29 05:42:38;;;;;;;10.13;2.90;;;16.90;99.90;;;;;;5074438;28;20574;-63
2022/07/29 05:45:05;;;;;;;13.35;3.75;;;17.00;99.90;;;;;;5074172;28;20554;-64
2022/07/29 05:47:31;;;;;;;8.98;3.00;;;17.10;99.90;;;;;;5074016;28;20272;-63
2022/07/29 05:49:56;;;;;;;6.32;2.97;;;17.10;99.90;;;;;;5073841;28;20666;-63
2022/07/29 05:52:22;;;;;;;6.47;2.85;;;17.10;99.90;;;;;;5073985;28;20638;-63
2022/07/29 05:54:48;;;;;;;9.65;3.00;;;17.10;99.90;;;;;;5074156;28;20269;-64
2022/07/29 05:57:23;;;;;;;6.15;2.90;;;17.10;99.90;;;;;;5074399;28;20530;-63
2022/07/29 05:59:50;;;;;;;4.65;2.50;;;17.10;99.90;;;;;;5074234;28;20177;-64
2022/07/29 06:02:16;;;;;;;7.68;2.90;;;17.00;99.90;;;;;;5073961;28;20162;-64
2022/07/29 06:04:42;;;;;;;7.10;2.83;;;17.00;99.90;;;;;;5073743;28;20202;-64
2022/07/29 06:07:08;;;;;;;5.60;2.67;;;17.00;99.90;;;;;;5074095;28;20265;-64
2022/07/29 06:09:34;;;;;;;7.18;2.92;;;17.00;99.90;;;;;;5089431;28;20262;-64
2022/07/29 06:12:00;;;;;;;6.40;2.58;;;17.00;99.90;;;;;;5074096;28;20172;-63
2022/07/29 06:14:28;;;;;;;8.93;2.60;;;17.10;99.90;;;;;;5073778;28;20197;-63
2022/07/29 06:16:54;;;;;;;5.72;2.80;;;17.10;99.90;;;;;;5073652;28;20319;-63
2022/07/29 06:19:19;;;;;;;10.32;2.72;;;17.20;99.90;;;;;;5089134;28;20255;-64
2022/07/29 06:21:46;;;;;;;4.55;2.55;;;17.20;99.90;;;;;;5073720;28;20182;-66
2022/07/29 06:24:13;;;;;;;6.35;2.80;;;17.30;99.90;;;;;;5073873;28;20198;-66
2022/07/29 06:26:40;;;;;;;10.40;3.08;;;17.30;99.90;;;;;;5073665;28;20540;-65
2022/07/29 06:29:06;;;;;;;5.55;2.60;;;17.30;99.90;;;;;;5073753;28;20513;-66
2022/07/29 06:31:32;;;;;;;8.73;3.05;;;17.30;99.90;;;;;;5074016;28;20198;-66
2022/07/29 06:33:58;;;;;;;8.60;2.92;;;17.40;99.90;;;;;;5073555;28;20820;-65
2022/07/29 06:36:24;;;;;;;5.70;2.80;;;17.40;99.90;;;;;;5073634;28;20170;-66
2022/07/29 06:38:49;;;;;;;7.95;2.90;;;17.30;99.90;;;;;;5074463;28;20229;-65
2022/07/29 06:41:16;;;;;;;6.80;2.92;;;17.30;99.90;;;;;;5056058;28;20174;-65
2022/07/29 06:43:43;;;;;;;3.70;2.33;;;17.30;99.90;;;;;;5074290;28;20729;-65
2022/07/29 06:46:14;;;;;;;3.85;2.75;;;17.40;99.90;;;;;;5090034;28;20262;-65
2022/07/29 06:48:44;;;;;;;4.63;2.53;;;17.40;99.90;;;;;;5074281;28;20244;-65
2022/07/29 06:51:14;;;;;;;6.45;2.63;;;17.50;99.90;;;;;;5074267;28;20190;-65
2022/07/29 06:53:40;;;;;;;10.32;3.17;;;17.60;99.90;;;;;;5074115;28;20201;-65
2022/07/29 06:56:08;;;;;;;7.05;2.50;;;17.60;99.90;;;;;;5073986;28;20185;-65
2022/07/29 06:58:35;;;;;;;4.35;2.80;;;17.70;99.90;;;;;;5073879;28;20231;-66
2022/07/29 07:01:03;;;;;;;5.22;2.58;;;17.80;99.90;;;;;;5073878;28;20568;-66
2022/07/29 07:03:29;;;;;;;4.35;2.60;;;17.90;99.90;;;;;;5073735;28;20161;-65
2022/07/29 07:05:55;;;;;;;7.43;2.67;;;18.00;99.90;;;;;;5073086;28;20174;-65
2022/07/29 07:08:21;;;;;;;6.35;2.42;;;18.10;99.90;;;;;;5073459;28;20626;-65
2022/07/29 07:10:48;;;;;;;5.22;2.50;;;18.10;99.90;;;;;;5073432;28;20186;-65
2022/07/29 07:13:14;;;;;;;10.35;2.75;;;18.30;99.90;;;;;;5073501;28;20166;-65
2022/07/29 07:15:40;;;;;;;7.30;2.35;;;18.40;99.90;;;;;;5088545;28;20229;-65
2022/07/29 07:18:07;;;;;;;5.55;2.67;;;18.50;99.90;;;;;;5073060;28;20269;-65
2022/07/29 07:20:33;;;;;;;4.28;2.47;;;18.60;99.90;;;;;;5073429;28;20223;-65
2022/07/29 07:22:59;;;;;;;4.38;2.38;;;18.70;99.90;;;;;;5073370;28;20186;-65
2022/07/29 07:25:25;;;;;;;6.07;2.88;;;18.80;99.90;;;;;;5073057;28;20217;-65
2022/07/29 07:27:51;;;;;;;5.22;2.38;;;18.80;99.90;;;;;;5073438;28;20177;-65
2022/07/29 07:30:17;;;;;;;7.45;2.50;;;18.90;99.90;;;;;;5074449;28;20163;-64
2022/07/29 07:32:43;;;;;;;5.20;2.30;;;19.00;99.90;;;;;;5076605;28;20174;-64
2022/07/29 07:35:10;;;;;;;5.00;2.60;;;19.00;99.90;;;;;;5078082;28;20232;-64
2022/07/29 07:37:37;;;;;;;3.65;2.25;;;19.10;99.90;;;;;;5077946;28;20193;-65
2022/07/29 07:40:04;;;;;;;5.63;3.00;;;19.20;99.90;;;;;;5077786;28;20169;-64
2022/07/29 07:42:30;;;;;;;9.52;2.72;;;19.20;99.90;;;;;;5093357;28;20553;-64
2022/07/29 07:44:55;;;;;;;9.07;2.90;;;19.20;99.90;;;;;;5077986;28;20194;-64
2022/07/29 07:47:23;;;;;;;5.95;2.65;;;19.30;99.90;;;;;;5077372;28;20170;-65
2022/07/29 07:49:50;;;;;;;3.53;2.47;;;19.40;99.90;;;;;;5091889;28;20193;-65
2022/07/29 07:52:18;;;;;;;7.70;2.78;;;19.40;99.90;;;;;;5076412;28;20678;-64
2022/07/29 07:54:44;;;;;;;6.57;2.85;;;19.70;99.90;;;;;;5076255;28;20217;-65
2022/07/29 07:57:14;;;;;;;3.58;2.47;;;19.90;99.90;;;;;;5058381;28;20650;-65
2022/07/29 07:59:41;;;;;;;4.53;2.83;;;20.00;99.90;;;;;;5076490;28;20200;-65
2022/07/29 08:02:07;;;;;;;8.93;2.80;;;20.20;99.90;;;;;;5076560;28;20169;-65
2022/07/29 08:04:33;;;;;;;5.55;2.78;;;20.20;99.90;;;;;;5076092;28;20202;-65
2022/07/29 08:07:00;;;;;;;5.07;2.40;;;20.30;99.90;;;;;;5076351;28;20157;-65
2022/07/29 08:09:28;;;;;;;4.18;2.20;;;20.20;99.90;;;;;;5076054;28;20208;-65
2022/07/29 08:11:54;;;;;;;5.35;2.03;;;20.40;99.90;;;;;;5092312;28;20170;-65
2022/07/29 08:14:20;;;;;;;4.80;2.25;;;20.50;99.90;;;;;;5075928;28;20568;-64
2022/07/29 08:16:46;;;;;;;6.38;2.88;;;20.60;99.90;;;;;;5076104;28;20186;-64
2022/07/29 08:19:12;;;;;;;6.38;3.00;;;20.50;99.90;;;;;;5091263;28;20658;-64
2022/07/29 08:21:38;;;;;;;5.40;2.50;;;20.40;99.90;;;;;;5075746;28;20169;-64
2022/07/29 08:26:49;;;;;;;7.60;2.80;;;20.40;99.90;;;;;;5076100;28;20249;-65
2022/07/29 08:29:16;;;;;;;4.90;2.33;;;20.40;99.90;;;;;;5076179;28;20185;-68
2022/07/29 08:31:42;;;;;;;7.63;3.55;;;20.60;99.90;;;;;;5077403;28;20154;-64
2022/07/29 08:34:07;;;;;;;6.57;2.70;;;20.70;99.90;;;;;;5076428;28;20205;-62
2022/07/29 08:36:34;;;;;;;8.90;3.00;;;20.80;99.90;;;;;;5075235;28;20182;-63
2022/07/29 08:39:01;;;;;;;9.98;2.65;;;20.90;99.90;;;;;;5075333;28;20202;-63
2022/07/29 08:41:27;;;;;;;7.65;2.72;;;21.00;99.90;;;;;;5090996;28;20178;-63
2022/07/29 08:43:53;;;;;;;5.40;2.72;;;21.20;99.90;;;;;;5075365;28;20193;-67
2022/07/29 08:46:20;;;;;;;5.68;2.83;;;21.20;99.90;;;;;;5091625;28;20178;-67
2022/07/29 08:48:47;;;;;;;7.20;3.80;;;21.40;99.90;;;;;;5076419;28;20166;-66
2022/07/29 08:51:18;;;;;;;6.28;3.30;;;21.60;99.90;;;;;;5075383;28;20661;-66
2022/07/29 08:53:47;;;;;;;8.80;3.58;;;21.70;99.90;;;;;;5074347;28;20255;-66
2022/07/29 08:56:14;;;;;;;6.30;2.90;;;21.70;99.90;;;;;;5090960;28;20264;-66
2022/07/29 08:58:41;;;;;;;10.57;2.90;;;21.60;99.90;;;;;;5075233;28;20208;-66
2022/07/29 09:01:08;;;;;;;4.63;2.60;;;21.50;99.90;;;;;;5090659;28;20181;-66
2022/07/29 09:03:36;;;;;;;4.55;2.63;;;21.60;99.90;;;;;;5074933;28;20725;-67
2022/07/29 09:06:03;;;;;;;4.32;2.30;;;21.70;99.90;;;;;;5074592;28;20185;-68
2022/07/29 09:08:32;;;;;;;10.93;2.85;;;21.70;99.90;;;;;;5074885;28;20223;-66
2022/07/29 09:10:59;;;;;;;6.97;2.47;;;21.70;99.90;;;;;;5074842;28;20206;-64
2022/07/29 09:13:25;;;;;;;5.78;3.08;;;21.90;99.90;;;;;;5075226;28;20690;-66
2022/07/29 09:15:52;;;;;;;11.07;3.65;;;22.20;99.90;;;;;;5075587;28;20251;-67
2022/07/29 09:18:46;;;;;;;4.18;2.35;;;22.20;99.90;;;;;;5074710;28;20197;-66
2022/07/29 09:24:09;;;;;;;6.88;2.83;;;22.50;99.90;;;;;;5074799;28;20207;-66
2022/07/29 09:26:45;;;;;;;7.53;3.03;;;22.50;99.90;;;;;;5075160;28;20158;-67
2022/07/29 09:29:13;;;;;;;5.50;2.60;;;22.60;99.90;;;;;;5074403;28;20164;-67
2022/07/29 09:31:41;;;;;;;12.48;3.35;;;22.50;99.90;;;;;;5074792;28;20231;-67
2022/07/29 09:34:07;;;;;;;6.55;3.03;;;22.50;99.90;;;;;;5074086;28;20263;-67
2022/07/29 09:36:45;;;;;;;6.93;2.58;;;22.50;99.90;;;;;;5074094;28;20182;-67
2022/07/29 09:39:12;;;;;;;7.70;2.85;;;22.50;99.90;;;;;;5074214;28;20177;-67
2022/07/29 09:41:55;;;;;;;4.35;2.47;;;22.40;99.90;;;;;;5074164;28;20181;-67
2022/07/29 09:44:24;;;;;;;9.90;3.00;;;22.60;99.90;;;;;;5074248;28;20197;-67
2022/07/29 09:47:08;;;;;;;4.78;2.65;;;22.60;99.90;;;;;;5074154;28;20170;-66
2022/07/29 09:49:57;;;;;;;9.85;2.60;;;22.60;99.90;;;;;;5074587;28;20154;-67
2022/07/29 09:52:24;;;;;;;6.53;2.72;;;22.60;99.90;;;;;;5074027;28;20165;-67
2022/07/29 09:54:50;;;;;;;5.95;2.78;;;23.00;99.90;;;;;;5073523;28;20228;-67
2022/07/29 09:57:25;;;;;;;5.00;2.50;;;23.10;99.90;;;;;;5073741;28;20174;-66
2022/07/29 09:59:59;;;;;;;3.53;2.22;;;23.00;99.90;;;;;;5073861;28;20197;-67
2022/07/29 10:02:30;;;;;;;6.93;1.98;;;23.10;99.90;;;;;;5074050;28;20253;-67
2022/07/29 10:04:56;;;;;;;5.97;2.50;;;23.30;99.90;;;;;;5073619;28;20205;-67
2022/07/29 10:07:22;;;;;;;4.78;2.70;;;23.40;99.90;;;;;;5073741;28;20169;-66
2022/07/29 10:09:56;;;;;;;8.23;2.78;;;23.30;99.90;;;;;;5073861;28;20190;-67
2022/07/29 10:12:22;;;;;;;4.78;2.40;;;23.20;99.90;;;;;;5089199;28;20178;-67
2022/07/29 10:14:49;;;;;;;5.57;2.30;;;23.30;99.90;;;;;;5073951;28;20213;-67
2022/07/29 10:17:16;;;;;;;7.68;2.55;;;23.30;99.90;;;;;;5073473;28;20185;-64
2022/07/29 10:19:42;;;;;;;4.85;2.60;;;23.40;99.90;;;;;;5089141;28;20190;-67
2022/07/29 10:22:10;;;;;;;5.63;2.40;;;23.30;99.90;;;;;;5088959;28;20188;-67
2022/07/29 10:24:38;;;;;;;3.80;2.20;;;23.20;99.90;;;;;;5073508;28;20194;-67
2022/07/29 10:27:09;;;;;;;6.00;2.38;;;23.20;99.90;;;;;;5089869;28;20223;-67
2022/07/29 10:29:44;;;;;;;3.20;2.17;;;23.10;99.90;;;;;;5073840;28;20150;-67
2022/07/29 10:32:47;;;;;;;10.02;3.17;;;23.10;99.90;;;;;;5073729;28;20175;-67
2022/07/29 10:35:35;;;;;;;10.02;3.60;;;22.90;99.90;;;;;;5072947;28;20666;-67
2022/07/29 10:38:23;;;;;;;8.23;2.90;;;22.80;99.90;;;;;;5089105;28;20205;-66
2022/07/29 10:41:28;;;;;;;7.50;2.80;;;22.60;99.90;;;;;;5089061;28;20201;-66
2022/07/29 10:44:22;;;;;;;8.98;2.83;;;22.50;99.90;;;;;;5073541;28;20197;-66
2022/07/29 10:46:48;;;;;;;6.85;3.20;;;22.40;99.90;;;;;;5052995;28;20177;-66
2022/07/29 10:49:17;;;;;;;5.18;2.83;;;22.30;99.90;;;;;;5089286;28;20276;-66
2022/07/29 10:52:09;;;;;;;9.65;3.50;;;22.30;99.90;;;;;;5089257;28;20233;-66
2022/07/29 10:54:35;;;;;;;9.48;3.38;;;22.20;99.90;;;;;;5089354;28;20194;-66
2022/07/29 10:57:16;;;;;;;6.78;3.45;;;22.10;99.90;;;;;;5074095;28;20184;-66
2022/07/29 11:00:08;;;;;;;9.35;5.05;;;22.00;99.90;;;;;;5089359;28;20343;-66
2022/07/29 11:02:37;;;;;;;14.05;4.53;;;21.90;99.90;;;;;;5056015;28;20252;-66
2022/07/29 11:05:12;;;;;;;8.98;4.90;;;21.90;99.90;;;;;;5088946;28;20213;-66
2022/07/29 11:07:39;;;;;;;7.30;4.43;;;21.80;99.90;;;;;;5076373;28;20157;-66
2022/07/29 11:10:15;;;;;;;8.25;4.53;;;21.80;99.90;;;;;;5093574;28;20199;-66
2022/07/29 11:12:41;;;;;;;9.85;4.97;;;21.90;99.90;;;;;;5093534;28;20162;-66
2022/07/29 11:15:16;;;;;;;5.97;4.28;;;21.90;99.90;;;;;;5093418;28;20194;-66
2022/07/29 11:17:52;;;;;;;11.00;4.65;;;21.90;99.90;;;;;;5092324;28;20181;-66
2022/07/29 11:20:32;;;;;;;8.07;4.50;;;21.90;99.90;;;;;;5077781;28;20173;-65
2022/07/29 11:22:58;;;;;;;9.02;4.53;;;21.90;99.90;;;;;;5077571;28;20626;-66
2022/07/29 11:25:25;;;;;;;8.52;4.38;;;21.80;99.90;;;;;;5093193;28;20280;-66
2022/07/29 11:28:08;;;;;;;5.45;4.28;;;21.80;99.90;;;;;;5093227;28;20265;-66
2022/07/29 11:31:04;;;;;;;7.20;3.90;;;21.80;99.90;;;;;;5093424;28;20226;-66
2022/07/29 11:33:33;;;;;;;7.97;3.58;;;21.80;99.90;;;;;;5047094;28;20268;-65
2022/07/29 11:36:14;;;;;;;11.30;4.28;;;21.90;99.90;;;;;;5092637;28;20733;-66
2022/07/29 11:38:40;;;;;;;8.80;4.45;;;22.20;99.90;;;;;;5059389;28;20254;-67
2022/07/29 11:41:24;;;;;;;8.13;4.38;;;22.30;99.90;;;;;;5093104;28;20184;-66
2022/07/29 11:43:58;;;;;;;7.35;3.47;;;22.40;99.90;;;;;;5093511;28;20331;-66
2022/07/29 11:46:49;;;;;;;6.00;3.67;;;22.70;99.90;;;;;;5077904;28;20208;-66
2022/07/29 11:49:26;;;;;;;10.80;4.40;;;23.00;99.90;;;;;;5091968;28;20545;-66
2022/07/29 11:51:52;;;;;;;9.43;3.42;;;23.20;99.90;;;;;;5076083;28;20713;-66
2022/07/29 11:54:26;;;;;;;11.77;4.47;;;23.20;99.90;;;;;;5076125;28;20288;-66
2022/07/29 11:56:52;;;;;;;11.55;4.03;;;23.30;99.90;;;;;;5076281;28;20162;-66
2022/07/29 11:59:19;;;;;;;8.25;3.33;;;23.40;99.90;;;;;;5076322;28;20193;-66
2022/07/29 12:01:55;;;;;;;6.03;3.25;;;23.40;99.90;;;;;;5076155;28;20198;-66
2022/07/29 12:04:23;;;;;;;6.80;3.35;;;23.40;99.90;;;;;;5076053;28;20197;-66
2022/07/29 12:06:54;;;;;;;7.60;3.63;;;23.50;99.90;;;;;;5075862;28;20174;-67
2022/07/29 12:09:21;;;;;;;9.15;3.58;;;23.60;99.90;;;;;;5075888;28;20584;-67
2022/07/29 12:11:47;;;;;;;8.65;3.20;;;23.70;99.90;;;;;;5076196;28;20643;-66
2022/07/29 12:14:29;;;;;;;6.30;3.20;;;23.50;99.90;;;;;;5091394;28;20205;-66
2022/07/29 12:16:55;;;;;;;10.65;4.15;;;23.30;99.90;;;;;;5091271;28;20193;-66
2022/07/29 12:19:21;;;;;;;8.63;3.65;;;23.10;99.90;;;;;;5074878;28;20247;-66
2022/07/29 12:21:49;;;;;;;5.95;3.67;;;23.10;99.90;;;;;;5075781;28;20178;-66
2022/07/29 12:24:15;;;;;;;8.80;3.78;;;23.10;99.90;;;;;;5076061;28;20186;-66
2022/07/29 12:26:55;;;;;;;6.75;3.17;;;23.10;99.90;;;;;;5076042;28;20205;-66
2022/07/29 12:29:21;;;;;;;8.07;3.35;;;23.00;99.90;;;;;;5076139;28;20623;-67
2022/07/29 12:31:53;;;;;;;8.57;3.42;;;22.90;99.90;;;;;;5076193;28;20177;-66
2022/07/29 12:34:22;;;;;;;5.93;3.97;;;22.80;99.90;;;;;;5075749;28;20205;-67
2022/07/29 12:36:49;;;;;;;6.32;3.83;;;22.80;99.90;;;;;;5075699;28;20166;-67
2022/07/29 12:39:17;;;;;;;11.68;4.28;;;22.90;99.90;;;;;;5090937;28;20197;-66
2022/07/29 12:41:43;;;;;;;12.68;3.92;;;22.80;99.90;;;;;;5075357;28;20533;-67
2022/07/29 12:44:10;;;;;;;5.53;3.08;;;22.80;99.90;;;;;;5075514;28;20561;-67
2022/07/29 12:46:36;;;;;;;8.15;4.45;;;22.80;99.90;;;;;;5076036;28;20166;-66
2022/07/29 12:49:03;;;;;;;5.90;3.05;;;22.80;99.90;;;;;;5075363;28;20224;-66
2022/07/29 12:51:37;;;;;;;8.63;4.05;;;22.80;99.90;;;;;;5074971;28;20256;-66
2022/07/29 12:54:10;;;;;;;8.38;4.13;;;22.60;99.90;;;;;;5090659;28;20334;-66
2022/07/29 12:56:41;;;;;;;6.13;3.35;;;22.50;99.90;;;;;;5075378;28;20519;-66
2022/07/29 12:59:19;;;;;;;7.90;3.63;;;22.40;99.90;;;;;;5075458;28;20178;-67
2022/07/29 13:01:49;;;;;;;12.10;4.40;;;22.40;99.90;;;;;;5075247;28;20212;-66
2022/07/29 13:04:54;;;;;;;7.50;4.20;;;22.30;99.90;;;;;;5074709;28;20197;-66